KMHV/MHV METAR and TAF weather

Enter ICAO airport designator
Station Type Date Time Source
KMHV METAR 2019/02/17 16:20 UTC NOAA

KMHV 171620Z AUTO 20007G13KT 10SM OVC030 03/M03 A3000 RMK A01


Station Type Date Time Source
KMHV Decoded METAR 2019/02/17 16:20 UTC NOAA

Mojave, CA, United States (KMHV) 35-04N 118-09W
Feb 17, 2019 - 11:20 AM EST / 2019.02.17 1620 UTC
Wind: from the SSW (200 degrees) at 8 MPH (7 KT) gusting to 15 MPH (13 KT):0
Visibility: 10 mile(s):0
Sky conditions: overcast
Temperature: 37 F (3 C)
Dew Point: 26 F (-3 C)
Relative Humidity: 64%
Pressure (altimeter): 30 in. Hg (1015 hPa)
ob: KMHV 171620Z AUTO 20007G13KT 10SM OVC030 03/M03 A3000 RMK A01
cycle: 16

Station Type Date Time Source
KMHV TAF UTC NOAA

Error!


Example: see airport list